This is the latest recevied weather packets stored in our database for station/object KC3DGM. If no packets are shown the sender has not sent any weather packets the latest 1 day(s).
| Time | Temp. | Humidity | Pressure | Rain* | Wind** | Luminosity | Snow |
|---|---|---|---|---|---|---|---|
| 1836274814 | 13.33° C | 96% | 995.5 hPa | 0 mm | 0 m/s | 0 W/m² | - |
| 1836274512 | 13.89° C | 96% | 995.6 hPa | 0 mm | 0 m/s | 0 W/m² | - |
| 1836274365 | 13.33° C | 97% | 995.3 hPa | 0 mm | 0 m/s | 0 W/m² | - |
| 1836274210 | 13.89° C | 96% | 995.4 hPa | 0 mm | 0 m/s | 0 W/m² | - |
| 1836273904 | 13.89° C | 96% | 995.3 hPa | 0 mm | 0 m/s | 0 W/m² | - |
| 1778044662 | 10.56° C | 99% | 979.4 hPa | 1.78 mm | 0 m/s | 0 W/m² | - |
| 1778044358 | 10.56° C | 99% | 979.4 hPa | 1.27 mm | 0 m/s | 0 W/m² | - |
| 1778044056 | 10.56° C | 99% | 979.7 hPa | 1.27 mm | 0 m/s | 0 W/m² | - |
| 1778043753 | 10.56° C | 99% | 979.3 hPa | 1.78 mm | 0 m/s | 0 W/m² | - |
| 1778043449 | 10.56° C | 99% | 979.5 hPa | 1.78 mm | 0 m/s | 0 W/m² | - |
| 1778043146 | 10.56° C | 99% | 979.7 hPa | 0 mm | 0 m/s | 0 W/m² | - |
| 1778042844 | 10.56° C | 99% | 980 hPa | 1.27 mm | 0 m/s | 0 W/m² | - |
| 1778042541 | 10.56° C | 99% | 979.7 hPa | 1.27 mm | 0 m/s | 0 W/m² | - |
| 1778042238 | 10.56° C | 99% | 979.9 hPa | 0 mm | 0 m/s | 0 W/m² | - |
| 1778041936 | 10.56° C | 99% | 979.7 hPa | 0 mm | 0.45 m/s, 270° | 0 W/m² | - |
| 1778041634 | 11.11° C | 99% | 980.1 hPa | 0 mm | 0 m/s | 0 W/m² | - |
| 1778041332 | 11.11° C | 99% | 979.7 hPa | 0 mm | 0 m/s | 0 W/m² | - |
| 1778041031 | 11.11° C | 99% | 979.7 hPa | 1.78 mm | 0 m/s | 0 W/m² | - |
| 1778040727 | 11.11° C | 99% | 979.6 hPa | 4.83 mm | 0 m/s | 0 W/m² | - |
| 1778040425 | 11.11° C | 99% | 979.5 hPa | 10.16 mm | 0 m/s | 0 W/m² | - |
| 1778040122 | 10.56° C | 99% | 979.4 hPa | 7.87 mm | 0 m/s | 0 W/m² | - |
| 1778039818 | 10.56° C | 99% | 979.6 hPa | 3.56 mm | 0 m/s | 0 W/m² | - |
| 1778039515 | 10.56° C | 99% | 979.4 hPa | 1.78 mm | 0 m/s | 0 W/m² | - |
| 1778039212 | 10.56° C | 99% | 979.4 hPa | 1.27 mm | 0 m/s | 0 W/m² | - |
| 1778038909 | 10.56° C | 99% | 979.3 hPa | 1.27 mm | 0 m/s | 0 W/m² | - |
* Rain latest hour (hover to see other rain measurements)
** Current wind speed in m/s (hover to see current wind gust speed)